createdAt,value
2022-11-28T00:01:02.587Z,7.82
2022-11-28T00:04:07.182Z,8.48
2022-11-28T00:07:11.948Z,7.93
2022-11-28T00:10:16.327Z,7.97
2022-11-28T00:13:19.071Z,8.00
2022-11-28T00:16:25.772Z,7.30
2022-11-28T00:19:29.068Z,7.68
2022-11-28T00:22:33.171Z,8.13
2022-11-28T00:25:35.899Z,7.15
2022-11-28T00:28:40.055Z,8.40
2022-11-28T00:31:44.349Z,8.32
2022-11-28T00:34:48.567Z,8.95
2022-11-28T00:37:51.248Z,8.27
2022-11-28T00:41:01.213Z,8.68
2022-11-28T00:44:03.943Z,7.80
2022-11-28T00:47:09.295Z,8.40
2022-11-28T00:50:12.218Z,8.45
2022-11-28T00:53:16.262Z,7.82
2022-11-28T00:56:21.022Z,7.82
2022-11-28T00:59:25.061Z,7.90
2022-11-28T01:02:29.253Z,8.15
2022-11-28T01:05:33.348Z,9.32
2022-11-28T01:08:37.679Z,8.82
2022-11-28T01:11:42.168Z,9.57
2022-11-28T01:14:46.137Z,9.47
2022-11-28T01:17:50.278Z,8.65
2022-11-28T01:20:54.257Z,10.45
2022-11-28T01:23:57.042Z,10.50
2022-11-28T01:26:59.979Z,10.48
2022-11-28T01:30:03.970Z,10.47
2022-11-28T01:33:08.015Z,10.30
2022-11-28T01:39:34.799Z,9.90
2022-11-28T01:42:38.776Z,10.75
2022-11-28T01:45:41.505Z,9.97
2022-11-28T01:48:46.881Z,9.70
2022-11-28T01:51:54.020Z,10.48
2022-11-28T01:55:02.448Z,10.10
2022-11-28T01:58:06.929Z,10.27
2022-11-28T02:01:10.935Z,10.27
2022-11-28T02:04:16.856Z,10.15
2022-11-28T02:07:20.638Z,9.60
2022-11-28T02:10:28.173Z,10.07
2022-11-28T02:13:42.438Z,9.68
2022-11-28T02:16:54.647Z,9.53
2022-11-28T02:20:31.512Z,9.48
2022-11-28T02:24:01.168Z,10.48
2022-11-28T02:27:19.824Z,9.85
2022-11-28T02:30:28.493Z,10.05
2022-11-28T02:33:34.995Z,9.63
2022-11-28T02:36:44.887Z,9.55
2022-11-28T02:39:56.176Z,8.98
2022-11-28T02:43:07.976Z,9.15
2022-11-28T02:46:17.632Z,8.38
2022-11-28T02:49:24.756Z,9.20
2022-11-28T02:52:33.795Z,8.73
2022-11-28T02:55:40.340Z,9.02
2022-11-28T03:02:07.620Z,8.60
2022-11-28T03:05:23.264Z,8.90
2022-11-28T03:08:38.285Z,8.23
2022-11-28T03:11:55.910Z,8.38
2022-11-28T03:15:01.544Z,8.02
2022-11-28T03:18:14.603Z,8.90
2022-11-28T03:21:27.343Z,8.00
2022-11-28T03:24:39.907Z,7.80
2022-11-28T03:27:48.062Z,8.45
2022-11-28T03:34:24.153Z,8.25
2022-11-28T03:37:34.860Z,7.63
2022-11-28T03:40:42.332Z,8.02
2022-11-28T03:43:51.637Z,8.05
2022-11-28T03:46:58.859Z,8.48
2022-11-28T03:50:05.774Z,8.38
2022-11-28T03:53:15.272Z,8.43
2022-11-28T03:56:25.154Z,8.55
2022-11-28T03:59:33.251Z,8.48
2022-11-28T04:02:42.813Z,8.20
2022-11-28T04:05:49.411Z,8.18
2022-11-28T04:09:02.925Z,8.30
2022-11-28T04:12:11.161Z,8.18
2022-11-28T04:15:20.045Z,8.73
2022-11-28T04:18:29.159Z,9.20
2022-11-28T04:21:38.197Z,8.73
2022-11-28T04:24:47.012Z,9.03
2022-11-28T04:27:57.395Z,8.82
2022-11-28T04:31:02.639Z,9.50
2022-11-28T04:34:09.811Z,8.18
2022-11-28T04:37:15.402Z,8.65
2022-11-28T04:40:22.152Z,8.77
2022-11-28T04:43:29.146Z,10.07
2022-11-28T04:46:36.620Z,11.25
2022-11-28T04:49:41.495Z,9.57
2022-11-28T04:52:52.142Z,9.15
2022-11-28T04:56:02.768Z,8.18
2022-11-28T04:59:07.978Z,7.75
2022-11-28T05:02:14.433Z,8.67
2022-11-28T05:05:21.611Z,8.18
2022-11-28T05:08:24.421Z,9.20
2022-11-28T05:11:30.697Z,8.43
2022-11-28T05:14:34.824Z,9.40
2022-11-28T05:17:42.432Z,8.77
2022-11-28T05:20:47.244Z,9.73
2022-11-28T05:23:50.375Z,9.13
2022-11-28T05:26:55.738Z,9.00
2022-11-28T05:29:58.580Z,8.63
2022-11-28T05:33:02.124Z,8.23
2022-11-28T05:36:11.376Z,8.75
2022-11-28T05:39:15.811Z,8.35
2022-11-28T05:42:21.239Z,8.93
2022-11-28T05:45:24.341Z,8.07
2022-11-28T05:48:28.406Z,8.70
2022-11-28T05:51:31.124Z,8.30
2022-11-28T05:54:34.048Z,8.00
2022-11-28T05:57:40.335Z,8.48
2022-11-28T06:00:43.560Z,8.50
2022-11-28T06:03:48.116Z,8.57
2022-11-28T06:10:58.056Z,7.75
2022-11-28T06:14:03.280Z,8.32
2022-11-28T06:17:05.965Z,8.25
2022-11-28T06:20:10.918Z,8.73
2022-11-28T06:23:13.783Z,7.93
2022-11-28T06:26:20.217Z,7.70
2022-11-28T06:29:25.540Z,8.27
2022-11-28T06:32:28.423Z,9.07
2022-11-28T06:35:32.422Z,7.70
2022-11-28T06:38:35.748Z,8.02
2022-11-28T06:41:39.436Z,8.68
2022-11-28T06:44:44.925Z,8.38
2022-11-28T06:47:48.100Z,8.30
2022-11-28T06:50:52.762Z,7.90
2022-11-28T06:53:55.667Z,8.80
2022-11-28T06:56:58.387Z,9.10
2022-11-28T07:00:02.616Z,9.13
2022-11-28T07:03:05.349Z,8.35
2022-11-28T07:12:55.001Z,9.25
2022-11-28T07:16:00.402Z,8.63
2022-11-28T07:19:05.569Z,8.75
2022-11-28T07:22:08.296Z,8.67
2022-11-28T07:25:11.289Z,9.40
2022-11-28T07:28:14.111Z,9.43
2022-11-28T07:31:19.766Z,8.55
2022-11-28T07:34:22.632Z,9.00
2022-11-28T07:37:25.528Z,8.30
2022-11-28T07:40:28.483Z,9.10
2022-11-28T07:43:32.698Z,9.38
2022-11-28T07:46:38.095Z,9.38
2022-11-28T07:49:41.152Z,9.53
2022-11-28T07:52:45.384Z,8.60
2022-11-28T07:55:48.140Z,9.93
2022-11-28T08:02:14.102Z,9.83
2022-11-28T08:08:38.812Z,10.00
2022-11-28T08:11:43.396Z,10.23
2022-11-28T08:14:46.152Z,9.47
2022-11-28T08:17:51.520Z,9.77
2022-11-28T08:20:55.664Z,9.68
2022-11-28T08:24:01.046Z,9.65
2022-11-28T08:27:05.026Z,9.63
2022-11-28T08:30:09.281Z,10.27
2022-11-28T08:33:13.771Z,9.50
2022-11-28T08:36:20.334Z,10.35
2022-11-28T08:39:24.751Z,9.70
2022-11-28T08:42:30.320Z,9.05
2022-11-28T08:45:33.315Z,10.03
2022-11-28T08:48:39.289Z,10.23
2022-11-28T08:51:42.026Z,9.70
2022-11-28T08:54:46.508Z,10.25
2022-11-28T08:57:49.206Z,10.43
2022-11-28T09:00:52.135Z,10.23
2022-11-28T09:03:58.653Z,9.40
2022-11-28T09:07:01.458Z,9.60
2022-11-28T09:13:27.816Z,9.57
2022-11-28T09:16:31.922Z,10.27
2022-11-28T09:19:36.077Z,10.03
2022-11-28T09:22:40.057Z,10.00
2022-11-28T09:25:42.872Z,10.10
2022-11-28T09:28:46.111Z,9.55
2022-11-28T09:31:48.870Z,10.07
2022-11-28T09:34:52.927Z,10.57
2022-11-28T09:37:56.956Z,10.00
2022-11-28T09:41:00.038Z,10.70
2022-11-28T09:44:09.298Z,9.90
2022-11-28T09:47:19.689Z,10.13
2022-11-28T09:50:26.389Z,9.50
2022-11-28T09:56:58.029Z,11.38
2022-11-28T10:00:00.888Z,10.35
2022-11-28T10:03:27.799Z,10.70
2022-11-28T10:06:42.890Z,10.40
2022-11-28T10:09:56.516Z,9.57
2022-11-28T10:13:09.179Z,10.35
2022-11-28T10:16:17.356Z,9.40
2022-11-28T10:22:58.891Z,10.20
2022-11-28T10:26:08.662Z,9.13
2022-11-28T10:29:23.770Z,10.30
2022-11-28T10:32:35.437Z,10.90
2022-11-28T10:35:45.628Z,10.70
2022-11-28T10:38:51.152Z,10.07
2022-11-28T10:42:14.979Z,11.37
2022-11-28T10:45:27.741Z,10.35
2022-11-28T10:48:41.915Z,10.05
2022-11-28T10:51:53.072Z,9.95
2022-11-28T10:55:16.577Z,9.87
2022-11-28T10:58:25.736Z,10.40
2022-11-28T11:01:32.505Z,9.50
2022-11-28T11:04:39.389Z,10.48
2022-11-28T11:07:48.098Z,9.73
2022-11-28T11:10:55.420Z,9.00
2022-11-28T11:14:01.365Z,10.30
2022-11-28T11:17:05.783Z,9.85
2022-11-28T11:20:34.759Z,10.70
2022-11-28T11:23:38.546Z,10.40
2022-11-28T11:26:45.567Z,10.17
2022-11-28T11:29:51.487Z,9.57
2022-11-28T11:32:57.196Z,10.52
2022-11-28T11:36:02.163Z,10.38
2022-11-28T11:39:17.976Z,10.75
2022-11-28T11:42:25.477Z,9.67
2022-11-28T11:45:31.742Z,9.83
2022-11-28T11:48:41.449Z,10.45
2022-11-28T11:51:44.291Z,10.18
2022-11-28T11:54:59.172Z,10.95
2022-11-28T11:58:06.211Z,10.40
2022-11-28T12:01:12.257Z,9.23
2022-11-28T12:04:43.872Z,8.55
2022-11-28T12:07:51.691Z,9.88
2022-11-28T12:11:04.677Z,9.70
2022-11-28T12:14:27.147Z,9.70
2022-11-28T12:17:49.594Z,9.10
2022-11-28T12:21:07.518Z,9.07
2022-11-28T12:24:15.342Z,8.10
2022-11-28T12:27:30.363Z,8.98
2022-11-28T12:30:51.393Z,9.73
2022-11-28T12:34:05.650Z,8.90
2022-11-28T12:37:29.418Z,9.05
2022-11-28T12:41:00.556Z,9.23
2022-11-28T12:44:12.751Z,8.30
2022-11-28T12:47:28.376Z,10.30
2022-11-28T12:50:36.415Z,9.53
2022-11-28T12:54:14.354Z,9.15
2022-11-28T12:57:26.313Z,8.23
2022-11-28T13:00:29.830Z,9.38
2022-11-28T13:03:52.924Z,9.53
2022-11-28T13:07:06.043Z,9.07
2022-11-28T13:10:18.747Z,9.15
2022-11-28T13:13:27.068Z,8.73
2022-11-28T13:16:37.178Z,8.70
2022-11-28T13:19:51.770Z,9.63
2022-11-28T13:23:05.448Z,8.63
2022-11-28T13:26:17.499Z,9.40
2022-11-28T13:29:27.846Z,8.93
2022-11-28T13:32:40.800Z,9.15
2022-11-28T13:35:47.528Z,8.80
2022-11-28T13:39:11.791Z,8.17
2022-11-28T13:45:48.403Z,9.60
2022-11-28T13:49:14.381Z,9.55
2022-11-28T13:52:36.310Z,10.10
2022-11-28T13:55:41.344Z,9.63
2022-11-28T13:58:51.222Z,11.98
2022-11-28T14:02:00.918Z,10.45
2022-11-28T14:05:04.705Z,11.20
2022-11-28T14:08:10.530Z,10.93
2022-11-28T14:11:28.181Z,11.80
2022-11-28T14:14:51.005Z,10.82
2022-11-28T14:18:31.911Z,12.68
2022-11-28T14:21:49.898Z,11.93
2022-11-28T14:24:57.920Z,12.80
2022-11-28T14:28:05.082Z,10.70
2022-11-28T14:31:25.751Z,13.05
2022-11-28T14:34:43.626Z,13.32
2022-11-28T14:37:52.753Z,13.18
2022-11-28T14:41:06.671Z,14.13
2022-11-28T14:44:49.510Z,14.77
2022-11-28T14:52:22.955Z,13.95
2022-11-28T14:55:26.229Z,14.18
2022-11-28T14:58:30.401Z,13.77
2022-11-28T15:01:53.564Z,13.47
2022-11-28T15:05:10.546Z,13.13
2022-11-28T15:08:37.861Z,14.10
2022-11-28T15:11:59.822Z,15.18
2022-11-28T15:15:07.935Z,14.17
2022-11-28T15:18:13.385Z,15.27
2022-11-28T15:21:17.925Z,14.38
2022-11-28T15:27:48.654Z,13.00
2022-11-28T15:30:54.131Z,14.67
2022-11-28T15:33:58.139Z,14.33
2022-11-28T15:37:03.578Z,14.40
2022-11-28T15:40:08.820Z,13.93
2022-11-28T15:43:15.493Z,14.15
2022-11-28T15:46:26.330Z,13.93
2022-11-28T15:49:31.092Z,13.73
2022-11-28T15:52:35.071Z,14.30
2022-11-28T15:55:37.875Z,14.23
2022-11-28T15:58:43.596Z,14.95
2022-11-28T16:01:47.991Z,14.23
2022-11-28T16:04:55.748Z,14.43
2022-11-28T16:07:58.592Z,15.02
2022-11-28T16:11:05.607Z,14.02
2022-11-28T16:14:12.808Z,15.05
2022-11-28T16:17:21.965Z,13.80
2022-11-28T16:20:27.059Z,13.60
2022-11-28T16:23:33.487Z,13.25
2022-11-28T16:26:38.298Z,14.65
2022-11-28T16:29:48.570Z,14.90
2022-11-28T16:32:53.981Z,15.00
2022-11-28T16:36:10.103Z,14.17
2022-11-28T16:39:16.637Z,14.55
2022-11-28T16:42:20.184Z,15.27
2022-11-28T16:45:25.977Z,13.88
2022-11-28T16:48:34.664Z,14.93
2022-11-28T16:51:39.412Z,13.77
2022-11-28T16:54:43.387Z,14.88
2022-11-28T16:57:48.735Z,15.07
2022-11-28T17:01:02.867Z,15.30
2022-11-28T17:04:08.289Z,14.40
2022-11-28T17:07:13.703Z,15.38
2022-11-28T17:10:16.559Z,15.57
2022-11-28T17:13:19.305Z,14.90
2022-11-28T17:16:25.729Z,15.03
2022-11-28T17:19:31.108Z,15.07
2022-11-28T17:22:40.705Z,15.65
2022-11-28T17:25:45.378Z,15.52
2022-11-28T17:28:48.117Z,15.03
2022-11-28T17:35:20.522Z,15.68
2022-11-28T17:38:23.243Z,16.02
2022-11-28T17:41:27.929Z,15.23
2022-11-28T17:44:33.192Z,14.43
2022-11-28T17:47:37.097Z,14.50
2022-11-28T17:50:43.084Z,14.65
2022-11-28T17:53:45.817Z,16.70
2022-11-28T17:56:49.823Z,15.23
2022-11-28T17:59:54.916Z,16.03
2022-11-28T18:02:58.714Z,15.63
2022-11-28T18:06:04.049Z,17.27
2022-11-28T18:09:11.915Z,17.45
2022-11-28T18:12:15.215Z,16.13
2022-11-28T18:15:18.130Z,16.27
2022-11-28T18:18:22.080Z,16.60
2022-11-28T18:21:26.719Z,16.75
2022-11-28T18:24:30.694Z,17.40
2022-11-28T18:27:33.355Z,16.05
2022-11-28T18:30:37.615Z,15.40
2022-11-28T18:33:40.689Z,16.30
2022-11-28T18:36:44.787Z,16.40
2022-11-28T18:39:47.539Z,16.73
2022-11-28T18:42:51.214Z,16.58
2022-11-28T18:45:53.941Z,18.80
2022-11-28T18:48:58.485Z,17.20
2022-11-28T18:52:02.576Z,17.60
2022-11-28T18:55:06.977Z,17.05
2022-11-28T18:58:09.702Z,16.80
2022-11-28T19:04:36.866Z,17.17
2022-11-28T19:07:42.521Z,16.52
2022-11-28T19:10:45.527Z,17.08
2022-11-28T19:13:51.568Z,17.75
2022-11-28T19:16:54.593Z,17.53
2022-11-28T19:19:59.066Z,19.13
2022-11-28T19:23:04.551Z,16.92
2022-11-28T19:26:09.791Z,16.65
2022-11-28T19:29:15.434Z,18.77
2022-11-28T19:32:19.588Z,19.43
2022-11-28T19:35:23.676Z,17.67
2022-11-28T19:38:27.756Z,17.35
2022-11-28T19:41:33.428Z,17.65
2022-11-28T19:44:36.150Z,18.42
2022-11-28T19:51:02.212Z,19.43
2022-11-28T19:54:06.424Z,19.17
2022-11-28T19:57:11.256Z,18.75
2022-11-28T20:00:15.405Z,18.60
2022-11-28T20:03:19.563Z,19.07
2022-11-28T20:06:24.595Z,19.03
2022-11-28T20:09:29.881Z,17.70
2022-11-28T20:12:32.751Z,17.17
2022-11-28T20:15:37.608Z,18.70
2022-11-28T20:18:43.385Z,16.97
2022-11-28T20:21:46.637Z,16.80
2022-11-28T20:24:50.810Z,17.35
2022-11-28T20:27:55.482Z,19.33
2022-11-28T20:30:58.159Z,18.10
2022-11-28T20:34:01.674Z,18.37
2022-11-28T20:37:04.410Z,16.60
2022-11-28T20:40:11.553Z,18.80
2022-11-28T20:43:14.267Z,18.50
2022-11-28T20:46:20.406Z,18.45
2022-11-28T20:49:23.151Z,18.53
2022-11-28T20:52:27.510Z,17.97
2022-11-28T20:55:32.796Z,17.90
2022-11-28T20:58:36.784Z,18.90
2022-11-28T21:01:39.475Z,17.98
2022-11-28T21:04:43.430Z,17.67
2022-11-28T21:07:47.592Z,18.10
2022-11-28T21:10:51.748Z,18.92
2022-11-28T21:13:57.138Z,18.00
2022-11-28T21:16:59.894Z,16.37
2022-11-28T21:20:03.926Z,17.13
2022-11-28T21:23:07.908Z,18.67
2022-11-28T21:26:13.739Z,17.65
2022-11-28T21:29:17.712Z,17.10
2022-11-28T21:32:21.849Z,16.73
2022-11-28T21:35:24.576Z,17.50
2022-11-28T21:38:28.611Z,17.73
2022-11-28T21:41:34.358Z,19.10
2022-11-28T21:44:38.326Z,18.63
2022-11-28T21:47:42.351Z,15.63
2022-11-28T21:50:48.276Z,16.85
2022-11-28T21:53:53.042Z,17.50
2022-11-28T21:56:57.144Z,16.98
2022-11-28T22:00:01.079Z,18.70
2022-11-28T22:03:10.872Z,16.67
2022-11-28T22:06:19.228Z,17.15
2022-11-28T22:09:23.136Z,16.85
2022-11-28T22:12:27.308Z,17.35
2022-11-28T22:15:31.329Z,16.25
2022-11-28T22:18:34.596Z,15.57
2022-11-28T22:21:56.148Z,16.50
2022-11-28T22:25:00.883Z,15.95
2022-11-28T22:28:05.378Z,17.50
2022-11-28T22:31:10.056Z,17.33
2022-11-28T22:34:12.826Z,17.00
2022-11-28T22:37:16.871Z,16.67
2022-11-28T22:40:21.138Z,16.95
2022-11-28T22:43:26.529Z,16.65
2022-11-28T22:46:30.028Z,17.77
2022-11-28T22:49:34.008Z,16.73
2022-11-28T22:52:36.715Z,16.58
2022-11-28T22:55:40.723Z,17.75
2022-11-28T22:58:46.349Z,16.17
2022-11-28T23:01:50.416Z,15.70
2022-11-28T23:04:54.478Z,15.20
2022-11-28T23:07:58.487Z,16.40
2022-11-28T23:11:05.887Z,16.42
2022-11-28T23:17:34.057Z,16.65
2022-11-28T23:23:59.761Z,17.27
2022-11-28T23:27:03.707Z,20.23
2022-11-28T23:30:10.620Z,20.47
2022-11-28T23:33:14.610Z,19.35
2022-11-28T23:36:19.905Z,21.95
2022-11-28T23:39:23.622Z,22.50
2022-11-28T23:42:27.568Z,23.88
2022-11-28T23:45:31.673Z,21.93
2022-11-28T23:48:35.770Z,23.23
2022-11-28T23:51:39.973Z,21.67
2022-11-28T23:54:44.005Z,21.15
2022-11-28T23:57:48.145Z,20.33
